Аэропорт: Национальный аэропорт Минск. Минск

ICAO: UMMS

METAR:
2018/05/20 23:00
UMMS 202300Z 31004MPS CAVOK 06/03 Q1024 R31/CLRD// NOSIG
METAR:
2018/05/20 18:24
TAF TAF UMMS 201709Z 2018/2118 04005G10MPS 9999 BKN020 
      TEMPO 2020/2106 1200 BR BKN003 
      TEMPO 2106/2118 06009G14MPS